SBFL/FLN METAR and TAF weather

Enter ICAO airport designator
Station Type Date Time Source
SBFL METAR 2020/04/05 14:00 UTC NOAA

SBFL 051400Z 36012KT CAVOK 25/19 Q1016


Station Type Date Time Source
SBFL Decoded METAR 2020/04/05 14:00 UTC NOAA

Florianopolis Aeroporto , Brazil (SBFL) 27-40S 048-33W 5M
Apr 05, 2020 - 10:00 AM EDT / 2020.04.05 1400 UTC
Wind: from the N (360 degrees) at 14 MPH (12 KT):0
Visibility: greater than 7 mile(s):0
Temperature: 77 F (25 C)
Dew Point: 66 F (19 C)
Relative Humidity: 69%
Pressure (altimeter): 30.00 in. Hg (1016 hPa)
ob: SBFL 051400Z 36012KT CAVOK 25/19 Q1016
cycle: 14

Station Type Date Time Source
SBFL TAF 2020/04/05 12:27 UTC NOAA

TAF SBFL 050900Z 0512/0612 26008KT 9999 FEW035 TX27/0518Z TN19/0607Z
BECMG 0515/0517 01010KT CAVOK
BECMG 0520/0522 35007KT 9999 FEW030
BECMG 0600/0602 30005KT SCT020
BECMG 0608/0610 35010KT CAVOK
RMK PEJ

Example: see airport list